EPKT Airport Information

Runway Information
Runway 09 Length 9183 ft width 195 ft
Elevation 970 ft Threshold 0 ft Heading 90
Runway 27 Length 9183 ft Width 195 ft
Elevation 994 ft Threshold 0 ft Heading 270
Airport Frequencies
Type APP Name APP Frequency 121.075 MHZ
Type GCCD Name HANDLING Frequency 131.45 MHZ
Type TWR Name TWR Frequency 129.25 MHZ
Airport Navaids
Type NDB Name Katowice Frequency 285 KHZ
Airport Weather Information & NOTAM
ADDS - METARS form results

(1814 UTC 19 January 2019)
Data provider http://aviationweather.gov/metar/data/
 
METAR text: EPKT 191800Z 07004KT 5000 BR NSC M07/M09 Q1019
Conditions at: EPKT (KATOWICE/PYRZOWI, PL) observed 1800 UTC 19 January 2019
Temperature: -7.0°C (19°F)
Dewpoint: -9.0°C (16°F) [RH = 86%]
Pressure (altimeter): 30.09 inches Hg (1019.0 mb)
Winds: from the ENE (70 degrees) at 5 MPH (4 knots; 2.1 m/s)
Visibility: 3 miles ( 5 km)
Ceiling: at least 12,000 feet AGL
Clouds: sky clear below 12,000 feet AGL
Weather: BR  (mist)

METAR text: EPKT 191730Z 08003KT 5000 BR NSC M05/M08 Q1019
Conditions at: EPKT (KATOWICE/PYRZOWI, PL) observed 1730 UTC 19 January 2019
Temperature: -5.0°C (23°F)
Dewpoint: -8.0°C (18°F) [RH = 79%]
Pressure (altimeter): 30.09 inches Hg (1019.0 mb)
Winds: from the E (80 degrees) at 3 MPH (3 knots; 1.5 m/s)
Visibility: 3 miles ( 5 km)
Ceiling: at least 12,000 feet AGL
Clouds: sky clear below 12,000 feet AGL
Weather: BR  (mist)

Forecast for: EPKT (KATOWICE/PYRZOWI, PL)
Text: TAF EPKT 191730Z 1918/2018 09004KT 4000 BR NSC
Forecast period: 1800 UTC 19 January 2019 to 1800 UTC 20 January 2019
Forecast type: FROM: standard forecast or significant change
Winds: from the E (90 degrees) at 5 MPH (4 knots; 2.1 m/s)
Visibility: 2.49 miles (4.01 km)
Ceiling: unknown
Clouds: missing
Weather: BR  (mist)
Text: TEMPO 1920/2018 SCT020
Forecast period: 2000 UTC 19 January 2019 to 1800 UTC 20 January 2019
Forecast type: TEMPORARY: The following changes expected for less than half the time period
Visibility: missing
Ceiling: at least 12,000 feet AGL
Clouds: scattered clouds at 2000 feet AGL
Weather: no significant weather forecast for this period
Text: PROB30
Forecast period: 2100 UTC 19 January 2019 to 0700 UTC 20 January 2019
Forecast type: TEMPORARY: The following changes expected for less than half the time period
Visibility: 0.75 miles (1.21 km)
Ceiling: 700 feet AGL
Clouds: broken clouds at 700 feet AGL
Weather: BR  (mist)